createdAt,value
2018-05-29T00:00:47.480Z,9.40
2018-05-29T00:03:13.708Z,8.57
2018-05-29T00:05:39.978Z,8.67
2018-05-29T00:08:06.220Z,9.00
2018-05-29T00:10:32.438Z,8.90
2018-05-29T00:12:58.718Z,9.63
2018-05-29T00:15:24.939Z,9.63
2018-05-29T00:17:51.166Z,8.40
2018-05-29T00:20:17.445Z,8.43
2018-05-29T00:22:43.663Z,8.90
2018-05-29T00:25:09.890Z,9.07
2018-05-29T00:27:36.170Z,8.80
2018-05-29T00:30:02.390Z,8.73
2018-05-29T00:32:28.625Z,8.67
2018-05-29T00:34:54.886Z,8.70
2018-05-29T00:37:21.121Z,8.50
2018-05-29T00:39:47.347Z,8.87
2018-05-29T00:42:13.611Z,8.30
2018-05-29T00:44:39.836Z,8.67
2018-05-29T00:47:06.105Z,8.77
2018-05-29T00:49:32.365Z,8.50
2018-05-29T00:51:58.583Z,8.63
2018-05-29T00:54:24.851Z,8.70
2018-05-29T00:56:51.114Z,9.20
2018-05-29T00:59:17.347Z,9.13
2018-05-29T01:01:43.591Z,8.30
2018-05-29T01:04:09.871Z,8.70
2018-05-29T01:06:36.124Z,7.67
2018-05-29T01:09:02.434Z,8.70
2018-05-29T01:11:28.722Z,8.30
2018-05-29T01:13:54.939Z,8.90
2018-05-29T01:16:21.173Z,8.40
2018-05-29T01:18:47.437Z,7.90
2018-05-29T01:21:13.692Z,8.50
2018-05-29T01:23:39.915Z,8.97
2018-05-29T01:26:06.166Z,8.23
2018-05-29T01:28:32.409Z,8.50
2018-05-29T01:30:58.647Z,8.40
2018-05-29T01:33:24.911Z,8.57
2018-05-29T01:35:51.150Z,8.70
2018-05-29T01:38:17.390Z,8.90
2018-05-29T01:40:43.662Z,8.10
2018-05-29T01:43:09.899Z,8.27
2018-05-29T01:45:36.135Z,8.57
2018-05-29T01:48:02.382Z,8.60
2018-05-29T01:50:28.623Z,8.63
2018-05-29T01:52:54.902Z,8.97
2018-05-29T01:55:21.173Z,8.17
2018-05-29T01:57:47.386Z,8.17
2018-05-29T02:00:13.657Z,7.93
2018-05-29T02:02:39.887Z,7.97
2018-05-29T02:05:06.138Z,8.20
2018-05-29T02:07:32.415Z,7.57
2018-05-29T02:09:58.658Z,7.47
2018-05-29T02:12:24.890Z,7.70
2018-05-29T02:14:51.166Z,7.67
2018-05-29T02:17:17.396Z,7.40
2018-05-29T02:19:43.625Z,7.70
2018-05-29T02:22:09.862Z,7.67
2018-05-29T02:24:36.126Z,8.23
2018-05-29T02:27:02.387Z,7.50
2018-05-29T02:29:28.634Z,8.03
2018-05-29T02:31:54.872Z,7.93
2018-05-29T02:34:21.134Z,7.23
2018-05-29T02:36:47.379Z,7.37
2018-05-29T02:39:13.635Z,6.73
2018-05-29T02:41:39.866Z,6.97
2018-05-29T02:44:06.117Z,7.50
2018-05-29T02:46:32.370Z,6.90
2018-05-29T02:48:58.594Z,6.47
2018-05-29T02:51:24.874Z,7.30
2018-05-29T02:53:51.114Z,7.60
2018-05-29T02:56:17.343Z,6.57
2018-05-29T02:58:43.585Z,6.50
2018-05-29T03:01:09.825Z,6.63
2018-05-29T03:03:36.090Z,6.40
2018-05-29T03:06:02.331Z,6.90
2018-05-29T03:08:28.600Z,6.80
2018-05-29T03:10:54.886Z,6.70
2018-05-29T03:13:21.118Z,5.60
2018-05-29T03:15:47.366Z,6.03
2018-05-29T03:18:13.594Z,6.03
2018-05-29T03:20:39.882Z,7.20
2018-05-29T03:23:06.184Z,6.40
2018-05-29T03:25:32.410Z,5.90
2018-05-29T03:27:58.706Z,11.57
2018-05-29T03:30:24.934Z,26.37
2018-05-29T03:32:51.176Z,7.37
2018-05-29T03:35:17.455Z,6.80
2018-05-29T03:37:43.690Z,6.40
2018-05-29T03:40:09.961Z,6.40
2018-05-29T03:42:36.210Z,6.10
2018-05-29T03:45:02.475Z,6.73
2018-05-29T03:47:28.734Z,6.53
2018-05-29T03:49:54.982Z,20.23
2018-05-29T03:52:21.238Z,10.13
2018-05-29T03:54:47.466Z,10.87
2018-05-29T03:57:13.762Z,9.10
2018-05-29T03:59:40.021Z,6.50
2018-05-29T04:02:06.262Z,5.87
2018-05-29T04:04:32.523Z,5.80
2018-05-29T04:06:58.760Z,5.50
2018-05-29T04:09:25.038Z,5.70
2018-05-29T04:11:52.399Z,6.57
2018-05-29T04:14:18.647Z,5.70
2018-05-29T04:16:44.908Z,6.17
2018-05-29T04:19:11.145Z,6.60
2018-05-29T04:21:37.374Z,6.50
2018-05-29T04:24:03.614Z,6.90
2018-05-29T04:26:29.847Z,6.50
2018-05-29T04:28:56.126Z,6.27
2018-05-29T04:31:22.355Z,6.10
2018-05-29T04:33:48.583Z,14.67
2018-05-29T04:36:14.827Z,7.27
2018-05-29T04:38:41.086Z,6.43
2018-05-29T04:41:07.399Z,6.40
2018-05-29T04:43:33.626Z,6.17
2018-05-29T04:45:59.874Z,6.17
2018-05-29T04:48:26.126Z,6.70
2018-05-29T04:50:52.386Z,6.70
2018-05-29T04:53:18.650Z,6.87
2018-05-29T04:55:44.867Z,9.77
2018-05-29T04:58:11.111Z,7.00
2018-05-29T05:00:37.371Z,7.20
2018-05-29T05:03:03.641Z,7.00
2018-05-29T05:05:29.898Z,7.13
2018-05-29T05:07:56.138Z,7.60
2018-05-29T05:10:22.366Z,6.80
2018-05-29T05:12:48.613Z,6.70
2018-05-29T05:15:14.849Z,6.33
2018-05-29T05:17:41.119Z,9.63
2018-05-29T05:20:07.420Z,10.63
2018-05-29T05:22:33.639Z,7.07
2018-05-29T05:24:59.890Z,6.77
2018-05-29T05:27:26.138Z,7.23
2018-05-29T05:29:52.421Z,7.23
2018-05-29T05:32:18.646Z,7.57
2018-05-29T05:34:44.881Z,7.10
2018-05-29T05:37:11.127Z,7.30
2018-05-29T05:39:37.434Z,7.57
2018-05-29T05:42:03.732Z,7.47
2018-05-29T05:44:29.979Z,7.17
2018-05-29T05:46:56.210Z,8.30
2018-05-29T05:49:22.454Z,7.97
2018-05-29T05:51:48.673Z,7.43
2018-05-29T05:54:14.932Z,7.80
2018-05-29T05:56:41.150Z,7.30
2018-05-29T05:59:07.366Z,7.30
2018-05-29T06:01:33.611Z,7.83
2018-05-29T06:03:59.831Z,9.20
2018-05-29T06:06:26.046Z,7.30
2018-05-29T06:08:52.294Z,8.23
2018-05-29T06:11:18.527Z,8.00
2018-05-29T06:13:44.794Z,7.20
2018-05-29T06:16:11.051Z,7.50
2018-05-29T06:18:37.286Z,7.97
2018-05-29T06:21:03.525Z,7.20
2018-05-29T06:23:29.774Z,8.05
2018-05-29T06:25:55.999Z,8.07
2018-05-29T06:28:22.250Z,7.70
2018-05-29T06:30:48.475Z,7.50
2018-05-29T06:33:14.703Z,8.50
2018-05-29T06:35:40.950Z,8.00
2018-05-29T06:38:07.213Z,7.15
2018-05-29T06:40:33.441Z,7.20
2018-05-29T06:42:59.666Z,7.12
2018-05-29T06:45:25.911Z,15.57
2018-05-29T06:47:52.158Z,7.65
2018-05-29T06:50:18.391Z,6.82
2018-05-29T06:52:44.646Z,7.40
2018-05-29T06:55:10.862Z,7.28
2018-05-29T06:57:37.079Z,7.35
2018-05-29T07:00:03.378Z,7.35
2018-05-29T07:02:29.598Z,7.70
2018-05-29T07:04:55.848Z,8.25
2018-05-29T07:07:22.091Z,7.40
2018-05-29T07:09:48.305Z,8.35
2018-05-29T07:12:14.574Z,8.02
2018-05-29T07:14:40.798Z,11.65
2018-05-29T07:17:07.054Z,8.70
2018-05-29T07:19:33.282Z,7.90
2018-05-29T07:21:59.508Z,7.78
2018-05-29T07:24:25.762Z,8.07
2018-05-29T07:26:51.986Z,7.80
2018-05-29T07:29:18.290Z,7.60
2018-05-29T07:31:44.514Z,7.47
2018-05-29T07:34:10.754Z,7.55
2018-05-29T07:36:37.005Z,7.95
2018-05-29T07:39:03.283Z,7.35
2018-05-29T07:41:29.558Z,7.22
2018-05-29T07:43:55.807Z,7.97
2018-05-29T07:46:22.054Z,7.45
2018-05-29T07:48:48.303Z,8.35
2018-05-29T07:51:14.538Z,8.15
2018-05-29T07:53:40.820Z,7.05
2018-05-29T07:56:07.075Z,8.52
2018-05-29T07:58:33.313Z,8.38
2018-05-29T08:00:59.588Z,7.60
2018-05-29T08:03:25.823Z,8.00
2018-05-29T08:05:52.076Z,8.15
2018-05-29T08:08:18.307Z,10.05
2018-05-29T08:10:44.607Z,9.98
2018-05-29T08:13:10.875Z,8.57
2018-05-29T08:15:37.131Z,8.40
2018-05-29T08:18:03.422Z,8.10
2018-05-29T08:20:29.651Z,7.72
2018-05-29T08:22:55.876Z,7.65
2018-05-29T08:25:22.135Z,8.50
2018-05-29T08:27:48.366Z,8.23
2018-05-29T08:30:14.629Z,8.00
2018-05-29T08:32:40.870Z,9.07
2018-05-29T08:35:07.107Z,15.05
2018-05-29T08:37:33.380Z,8.20
2018-05-29T08:39:59.607Z,7.62
2018-05-29T08:42:25.898Z,7.95
2018-05-29T08:44:52.132Z,7.15
2018-05-29T08:47:18.370Z,7.80
2018-05-29T08:49:44.627Z,7.68
2018-05-29T08:52:10.859Z,7.25
2018-05-29T08:54:37.122Z,8.88
2018-05-29T08:57:03.391Z,7.90
2018-05-29T08:59:29.615Z,7.80
2018-05-29T09:01:55.871Z,8.05
2018-05-29T09:04:22.168Z,7.90
2018-05-29T09:06:48.414Z,8.82
2018-05-29T09:09:14.679Z,8.55
2018-05-29T09:11:40.919Z,9.20
2018-05-29T09:14:07.159Z,9.68
2018-05-29T09:16:33.403Z,8.43
2018-05-29T09:18:59.699Z,8.30
2018-05-29T09:21:25.934Z,9.00
2018-05-29T09:23:52.155Z,7.80
2018-05-29T09:26:18.398Z,8.57
2018-05-29T09:28:44.629Z,8.77
2018-05-29T09:31:10.886Z,8.02
2018-05-29T09:33:37.110Z,8.20
2018-05-29T09:36:03.404Z,8.48
2018-05-29T09:38:29.652Z,7.70
2018-05-29T09:40:55.874Z,7.28
2018-05-29T09:43:22.170Z,12.63
2018-05-29T09:45:48.439Z,11.25
2018-05-29T09:48:14.684Z,8.20
2018-05-29T09:50:40.954Z,8.18
2018-05-29T09:53:07.182Z,8.13
2018-05-29T09:55:33.434Z,7.87
2018-05-29T09:57:59.657Z,7.30
2018-05-29T10:00:31.895Z,8.07
2018-05-29T10:02:58.138Z,8.13
2018-05-29T10:05:24.370Z,7.78
2018-05-29T10:07:50.606Z,7.20
2018-05-29T10:10:16.891Z,7.60
2018-05-29T10:12:43.115Z,8.25
2018-05-29T10:15:09.354Z,11.93
2018-05-29T10:17:35.599Z,9.52
2018-05-29T10:20:01.831Z,7.43
2018-05-29T10:22:28.067Z,8.00
2018-05-29T10:24:54.354Z,7.55
2018-05-29T10:27:20.570Z,7.78
2018-05-29T10:29:46.790Z,7.35
2018-05-29T10:32:13.060Z,7.80
2018-05-29T10:34:39.283Z,8.23
2018-05-29T10:37:05.534Z,7.20
2018-05-29T10:39:31.759Z,7.05
2018-05-29T10:41:57.994Z,7.18
2018-05-29T10:44:24.247Z,7.65
2018-05-29T10:46:50.460Z,7.50
2018-05-29T10:49:16.710Z,6.65
2018-05-29T10:51:42.939Z,7.50
2018-05-29T10:54:09.167Z,7.07
2018-05-29T10:56:35.426Z,7.35
2018-05-29T10:59:01.682Z,7.57
2018-05-29T11:01:27.946Z,6.93
2018-05-29T11:03:54.166Z,7.55
2018-05-29T11:06:20.458Z,7.20
2018-05-29T11:08:46.705Z,7.30
2018-05-29T11:11:12.972Z,13.52
2018-05-29T11:13:39.219Z,7.20
2018-05-29T11:16:05.456Z,7.20
2018-05-29T11:18:31.701Z,7.53
2018-05-29T11:20:57.962Z,7.10
2018-05-29T11:23:24.182Z,7.85
2018-05-29T11:25:50.449Z,7.62
2018-05-29T11:28:16.690Z,8.20
2018-05-29T11:30:42.907Z,8.82
2018-05-29T11:33:09.178Z,7.37
2018-05-29T11:35:35.398Z,7.05
2018-05-29T11:38:01.694Z,6.97
2018-05-29T11:40:27.927Z,8.02
2018-05-29T11:42:54.154Z,7.37
2018-05-29T11:45:20.414Z,7.37
2018-05-29T11:47:46.634Z,7.43
2018-05-29T11:50:12.923Z,7.95
2018-05-29T11:52:39.159Z,7.55
2018-05-29T11:55:05.447Z,7.55
2018-05-29T11:57:31.698Z,7.32
2018-05-29T11:59:57.927Z,8.73
2018-05-29T12:02:24.256Z,8.73
2018-05-29T12:04:57.474Z,8.50
2018-05-29T12:07:23.802Z,7.70
2018-05-29T12:09:50.034Z,13.02
2018-05-29T12:12:24.295Z,10.55
2018-05-29T12:14:50.551Z,8.35
2018-05-29T12:17:16.798Z,8.30
2018-05-29T12:19:43.058Z,9.23
2018-05-29T12:22:09.294Z,8.75
2018-05-29T12:24:35.563Z,8.63
2018-05-29T12:27:01.818Z,8.23
2018-05-29T12:29:28.063Z,7.70
2018-05-29T12:31:54.323Z,8.10
2018-05-29T12:34:20.555Z,8.32
2018-05-29T12:36:46.834Z,7.87
2018-05-29T12:39:13.085Z,7.97
2018-05-29T12:41:39.329Z,7.87
2018-05-29T12:44:05.583Z,15.88
2018-05-29T12:46:31.815Z,9.88
2018-05-29T12:48:58.074Z,8.60
2018-05-29T12:51:24.338Z,8.88
2018-05-29T12:53:50.582Z,8.68
2018-05-29T12:56:16.838Z,7.65
2018-05-29T12:58:43.114Z,8.75
2018-05-29T13:01:09.401Z,8.70
2018-05-29T13:03:35.630Z,9.55
2018-05-29T13:06:01.855Z,8.63
2018-05-29T13:08:28.123Z,9.38
2018-05-29T13:10:54.351Z,9.63
2018-05-29T13:13:20.643Z,8.75
2018-05-29T13:15:46.874Z,8.60
2018-05-29T13:18:13.103Z,9.70
2018-05-29T13:20:39.358Z,9.38
2018-05-29T13:23:05.595Z,8.93
2018-05-29T13:25:31.856Z,9.35
2018-05-29T13:27:58.157Z,8.75
2018-05-29T13:30:24.370Z,9.45
2018-05-29T13:32:50.627Z,9.40
2018-05-29T13:35:16.882Z,8.98
2018-05-29T13:37:43.145Z,8.98
2018-05-29T13:40:09.375Z,9.13
2018-05-29T13:42:35.607Z,9.82
2018-05-29T13:45:01.885Z,9.68
2018-05-29T13:47:28.136Z,9.63
2018-05-29T13:49:54.394Z,10.93
2018-05-29T13:52:20.622Z,9.90
2018-05-29T13:54:46.865Z,9.95
2018-05-29T13:57:13.135Z,9.73
2018-05-29T13:59:39.367Z,9.30
2018-05-29T14:02:05.670Z,9.23
2018-05-29T14:04:31.903Z,9.93
2018-05-29T14:06:58.129Z,9.55
2018-05-29T14:09:24.379Z,8.90
2018-05-29T14:11:50.602Z,9.45
2018-05-29T14:14:16.887Z,9.45
2018-05-29T14:16:43.161Z,10.00
2018-05-29T14:19:09.405Z,9.50
2018-05-29T14:21:35.670Z,9.55
2018-05-29T14:24:01.887Z,9.90
2018-05-29T14:26:28.145Z,10.43
2018-05-29T14:28:54.371Z,10.00
2018-05-29T14:31:20.586Z,10.50
2018-05-29T14:33:46.831Z,10.63
2018-05-29T14:36:13.058Z,11.77
2018-05-29T14:38:39.303Z,12.65
2018-05-29T14:41:05.549Z,10.70
2018-05-29T14:43:31.781Z,10.77
2018-05-29T14:45:58.042Z,10.70
2018-05-29T14:48:24.262Z,10.35
2018-05-29T14:50:50.527Z,10.63
2018-05-29T14:53:16.808Z,11.00
2018-05-29T14:55:43.050Z,10.52
2018-05-29T14:58:09.269Z,11.27
2018-05-29T15:00:35.535Z,11.32
2018-05-29T15:03:01.767Z,10.05
2018-05-29T15:05:28.043Z,10.90
2018-05-29T15:07:54.254Z,10.95
2018-05-29T15:10:20.476Z,10.23
2018-05-29T15:12:46.731Z,11.57
2018-05-29T15:15:12.968Z,11.52
2018-05-29T15:17:39.223Z,11.63
2018-05-29T15:20:05.477Z,10.60
2018-05-29T15:22:31.722Z,10.75
2018-05-29T15:24:58.006Z,10.60
2018-05-29T15:27:24.446Z,8.57
2018-05-29T15:29:50.709Z,10.07
2018-05-29T15:32:16.943Z,10.55
2018-05-29T15:34:43.199Z,9.00
2018-05-29T15:37:09.458Z,10.35
2018-05-29T15:39:35.683Z,10.13
2018-05-29T15:42:01.959Z,12.05
2018-05-29T15:44:28.202Z,12.05
2018-05-29T15:46:54.623Z,13.57
2018-05-29T15:49:20.878Z,11.00
2018-05-29T15:51:47.127Z,10.63
2018-05-29T15:54:13.395Z,10.90
2018-05-29T15:56:39.634Z,11.27
2018-05-29T15:59:05.895Z,10.32
2018-05-29T16:01:32.126Z,10.52
2018-05-29T16:03:58.395Z,10.60
2018-05-29T16:06:24.654Z,10.45
2018-05-29T16:08:50.893Z,9.63
2018-05-29T16:11:17.209Z,12.00
2018-05-29T16:13:43.654Z,10.23
2018-05-29T16:16:09.928Z,10.48
2018-05-29T16:18:36.177Z,10.90
2018-05-29T16:21:02.418Z,9.77
2018-05-29T16:23:28.691Z,10.05
2018-05-29T16:25:54.929Z,11.55
2018-05-29T16:28:21.174Z,11.07
2018-05-29T16:30:47.470Z,11.23
2018-05-29T16:33:13.702Z,10.80
2018-05-29T16:35:39.955Z,10.50
2018-05-29T16:38:06.202Z,9.52
2018-05-29T16:40:32.461Z,10.88
2018-05-29T16:42:58.723Z,11.18
2018-05-29T16:45:24.959Z,11.40
2018-05-29T16:47:51.231Z,11.05
2018-05-29T16:50:17.490Z,11.45
2018-05-29T16:52:43.710Z,12.45
2018-05-29T16:55:09.966Z,11.95
2018-05-29T16:57:36.218Z,10.88
2018-05-29T17:00:02.531Z,11.18
2018-05-29T17:02:28.754Z,11.52
2018-05-29T17:04:54.989Z,11.55
2018-05-29T17:07:21.233Z,11.98
2018-05-29T17:09:47.479Z,11.23
2018-05-29T17:12:13.723Z,12.85
2018-05-29T17:14:39.971Z,11.00
2018-05-29T17:17:06.259Z,10.93
2018-05-29T17:19:32.527Z,11.20
2018-05-29T17:21:58.754Z,11.32
2018-05-29T17:24:25.029Z,11.20
2018-05-29T17:26:51.274Z,9.68
2018-05-29T17:29:17.546Z,11.15
2018-05-29T17:31:43.795Z,11.12
2018-05-29T17:34:10.032Z,10.77
2018-05-29T17:36:36.294Z,10.07
2018-05-29T17:39:02.598Z,11.15
2018-05-29T17:41:28.882Z,11.23
2018-05-29T17:43:55.131Z,10.50
2018-05-29T17:46:21.393Z,11.05
2018-05-29T17:48:47.647Z,10.85
2018-05-29T17:51:13.886Z,11.23
2018-05-29T17:53:40.378Z,10.40
2018-05-29T17:56:06.615Z,12.37
2018-05-29T17:58:32.834Z,10.45
2018-05-29T18:00:59.107Z,10.43
2018-05-29T18:03:25.370Z,28.17
2018-05-29T18:05:51.620Z,33.33
2018-05-29T18:08:17.903Z,30.92
2018-05-29T18:10:44.134Z,15.57
2018-05-29T18:13:10.354Z,13.40
2018-05-29T18:15:36.606Z,12.27
2018-05-29T18:18:02.855Z,12.90
2018-05-29T18:20:29.147Z,12.23
2018-05-29T18:22:55.402Z,11.88
2018-05-29T18:25:21.641Z,11.63
2018-05-29T18:27:47.894Z,11.98
2018-05-29T18:30:14.142Z,11.90
2018-05-29T18:32:40.402Z,11.52
2018-05-29T18:35:06.663Z,12.43
2018-05-29T18:37:32.919Z,11.18
2018-05-29T18:39:59.172Z,11.55
2018-05-29T18:42:25.428Z,12.05
2018-05-29T18:44:51.699Z,10.20
2018-05-29T18:47:17.925Z,10.05
2018-05-29T18:49:44.167Z,10.50
2018-05-29T18:52:10.427Z,9.98
2018-05-29T18:54:36.667Z,10.82
2018-05-29T18:57:02.967Z,10.35
2018-05-29T18:59:29.198Z,10.02
2018-05-29T19:01:55.460Z,9.25
2018-05-29T19:04:21.728Z,10.10
2018-05-29T19:06:48.023Z,12.15
2018-05-29T19:09:14.306Z,11.75
2018-05-29T19:11:40.812Z,9.70
2018-05-29T19:14:07.182Z,9.95
2018-05-29T19:16:33.736Z,9.38
2018-05-29T19:19:00.048Z,15.98
2018-05-29T19:21:26.371Z,12.77
2018-05-29T19:23:52.609Z,11.35
2018-05-29T19:26:18.838Z,8.68
2018-05-29T19:28:45.322Z,8.95
2018-05-29T19:31:11.731Z,9.88
2018-05-29T19:33:37.998Z,11.45
2018-05-29T19:36:04.283Z,9.90
2018-05-29T19:38:30.929Z,8.48
2018-05-29T19:40:57.242Z,8.73
2018-05-29T19:43:23.738Z,9.43
2018-05-29T19:45:50.308Z,10.40
2018-05-29T19:48:16.642Z,12.35
2018-05-29T19:50:43.091Z,10.48
2018-05-29T19:53:09.379Z,10.05
2018-05-29T19:55:35.916Z,13.15
2018-05-29T19:58:02.535Z,11.60
2018-05-29T20:00:28.927Z,11.75
2018-05-29T20:02:55.279Z,10.63
2018-05-29T20:05:21.638Z,10.35
2018-05-29T20:07:47.981Z,9.55
2018-05-29T20:10:14.391Z,10.20
2018-05-29T20:12:40.881Z,10.15
2018-05-29T20:15:07.173Z,10.50
2018-05-29T20:17:33.426Z,10.50
2018-05-29T20:19:59.677Z,10.70
2018-05-29T20:22:26.310Z,10.90
2018-05-29T20:24:52.780Z,9.57
2018-05-29T20:27:19.135Z,11.02
2018-05-29T20:29:45.550Z,9.80
2018-05-29T20:32:11.839Z,10.95
2018-05-29T20:34:38.215Z,10.82
2018-05-29T20:37:04.621Z,10.40
2018-05-29T20:39:30.952Z,10.43
2018-05-29T20:41:57.252Z,10.82
2018-05-29T20:44:23.586Z,10.30
2018-05-29T20:46:50.018Z,10.75
2018-05-29T20:49:16.283Z,10.10
2018-05-29T20:51:42.709Z,10.82
2018-05-29T20:54:09.222Z,11.02
2018-05-29T20:56:35.612Z,10.15
2018-05-29T20:59:01.941Z,9.38
2018-05-29T21:01:28.216Z,12.80
2018-05-29T21:03:54.446Z,31.05
2018-05-29T21:06:21.090Z,15.68
2018-05-29T21:08:47.497Z,8.95
2018-05-29T21:11:13.779Z,8.38
2018-05-29T21:13:40.267Z,8.52
2018-05-29T21:16:06.586Z,7.80
2018-05-29T21:18:33.084Z,8.23
2018-05-29T21:21:00.373Z,7.72
2018-05-29T21:23:26.634Z,7.80
2018-05-29T21:25:53.068Z,6.72
2018-05-29T21:28:19.379Z,6.45
2018-05-29T21:30:45.955Z,6.55
2018-05-29T21:33:12.233Z,5.85
2018-05-29T21:35:38.821Z,6.00
2018-05-29T21:38:05.351Z,14.63
2018-05-29T21:40:31.928Z,13.67
2018-05-29T21:42:58.516Z,6.57
2018-05-29T21:45:24.755Z,6.27
2018-05-29T21:47:51.031Z,5.60
2018-05-29T21:50:17.592Z,5.22
2018-05-29T21:52:44.144Z,4.70
2018-05-29T21:55:11.089Z,4.30
2018-05-29T21:57:37.359Z,3.90
2018-05-29T22:00:03.747Z,4.67
2018-05-29T22:02:30.191Z,4.50
2018-05-29T22:04:56.555Z,5.00
2018-05-29T22:07:22.919Z,4.03
2018-05-29T22:09:49.464Z,4.37
2018-05-29T22:12:16.158Z,4.03
2018-05-29T22:14:42.722Z,3.90
2018-05-29T22:17:09.023Z,3.97
2018-05-29T22:19:35.278Z,4.33
2018-05-29T22:22:01.725Z,3.90
2018-05-29T22:24:28.107Z,3.87
2018-05-29T22:26:54.659Z,4.10
2018-05-29T22:29:20.935Z,4.10
2018-05-29T22:31:47.199Z,4.07
2018-05-29T22:34:13.754Z,4.70
2018-05-29T22:36:40.131Z,4.10
2018-05-29T22:39:06.591Z,3.93
2018-05-29T22:41:33.035Z,3.97
2018-05-29T22:43:59.423Z,4.43
2018-05-29T22:46:25.888Z,4.17
2018-05-29T22:48:52.258Z,4.27
2018-05-29T22:51:18.519Z,4.33
2018-05-29T22:53:44.814Z,4.43
2018-05-29T22:56:11.329Z,4.17
2018-05-29T22:58:37.639Z,4.27
2018-05-29T23:01:04.193Z,4.33
2018-05-29T23:03:30.694Z,4.03
2018-05-29T23:05:57.000Z,4.53
2018-05-29T23:08:23.623Z,4.50
2018-05-29T23:10:49.917Z,4.20
2018-05-29T23:13:16.263Z,4.50
2018-05-29T23:15:42.860Z,4.23
2018-05-29T23:18:09.491Z,4.47
2018-05-29T23:20:35.826Z,4.57
2018-05-29T23:23:02.042Z,4.60
2018-05-29T23:25:28.481Z,4.70
2018-05-29T23:27:54.746Z,4.40
2018-05-29T23:30:20.994Z,4.47
2018-05-29T23:32:47.234Z,4.57
2018-05-29T23:35:13.521Z,4.77
2018-05-29T23:37:39.751Z,4.93
2018-05-29T23:40:05.983Z,4.73
2018-05-29T23:42:32.247Z,5.10
2018-05-29T23:44:58.727Z,5.20
2018-05-29T23:47:24.957Z,4.47
2018-05-29T23:49:51.237Z,4.70
2018-05-29T23:52:17.499Z,4.97
2018-05-29T23:54:43.747Z,5.10
2018-05-29T23:57:10.019Z,5.23
2018-05-29T23:59:36.255Z,4.90
